Time;durP1;ratioP1;P1;durP2;ratioP2;P2;SDS_P1;SDS_P2;PMS_P1;PMS_P2;Temp;Humidity;BMP_temperature;BMP_pressure;BME280_temperature;BME280_humidity;BME280_pressure;Samples;Min_cycle;Max_cycle;Signal;HPM_P1;HPM_P2
2024/01/08 00:01:50;;;;;;;0.73;0.30;;;3.30;33.00;;;;;;5011986;28;20220;-44
2024/01/08 00:04:16;;;;;;;0.98;0.73;;;3.30;33.00;;;;;;5012160;28;20211;-44
2024/01/08 00:06:42;;;;;;;1.02;0.43;;;3.30;33.10;;;;;;5012484;28;20177;-49
2024/01/08 00:09:08;;;;;;;5.05;2.28;;;3.30;33.20;;;;;;5012287;28;20652;-46
2024/01/08 00:11:33;;;;;;;1.30;1.20;;;3.30;33.40;;;;;;5020374;28;20180;-45
2024/01/08 00:13:59;;;;;;;1.65;0.88;;;3.30;33.50;;;;;;5031979;28;20899;-47
2024/01/08 00:16:25;;;;;;;0.80;0.37;;;3.40;33.40;;;;;;5031964;28;20271;-50
2024/01/08 00:18:50;;;;;;;2.85;0.50;;;3.40;33.40;;;;;;5032040;28;20186;-46
2024/01/08 00:21:16;;;;;;;0.80;0.43;;;3.40;33.40;;;;;;5032601;28;20201;-45
2024/01/08 00:23:42;;;;;;;0.80;0.30;;;3.50;33.10;;;;;;5032301;28;20344;-49
2024/01/08 00:26:08;;;;;;;0.90;0.60;;;3.40;33.20;;;;;;5032239;28;20185;-45
2024/01/08 00:28:33;;;;;;;1.33;1.10;;;3.50;33.10;;;;;;5031602;28;20252;-46
2024/01/08 00:30:59;;;;;;;0.80;0.40;;;3.50;33.20;;;;;;5031278;28;20218;-49
2024/01/08 00:33:25;;;;;;;0.90;0.57;;;3.50;33.40;;;;;;5031439;28;20181;-45
2024/01/08 00:35:52;;;;;;;1.37;0.77;;;3.50;33.20;;;;;;5031391;28;20186;-43
2024/01/08 00:38:18;;;;;;;0.80;0.30;;;3.50;32.90;;;;;;5031122;28;20412;-51
2024/01/08 00:40:44;;;;;;;2.33;1.20;;;3.50;33.10;;;;;;5034286;28;20551;-49
2024/01/08 00:43:09;;;;;;;0.90;0.57;;;3.50;33.00;;;;;;5035394;28;20196;-45
2024/01/08 00:45:35;;;;;;;1.37;1.27;;;3.50;33.30;;;;;;5035043;28;20173;-49
2024/01/08 00:48:01;;;;;;;0.80;0.60;;;3.40;32.80;;;;;;5035233;28;20256;-46
2024/01/08 00:50:27;;;;;;;2.27;1.13;;;3.40;32.90;;;;;;5034807;28;20428;-45
2024/01/08 00:52:52;;;;;;;0.70;0.20;;;3.40;33.00;;;;;;5034861;28;20208;-49
2024/01/08 00:55:18;;;;;;;0.80;0.47;;;3.30;33.00;;;;;;5035258;28;20263;-50
2024/01/08 00:57:44;;;;;;;1.27;0.80;;;3.30;33.10;;;;;;5034895;28;20243;-46
2024/01/08 01:00:10;;;;;;;0.70;0.30;;;3.30;33.10;;;;;;5034586;28;20230;-50
2024/01/08 01:02:36;;;;;;;0.90;0.70;;;3.30;33.30;;;;;;5034784;28;20284;-46
2024/01/08 01:05:02;;;;;;;2.60;2.40;;;3.30;33.40;;;;;;5034826;28;20243;-46
2024/01/08 01:07:28;;;;;;;1.00;0.50;;;3.30;33.50;;;;;;5027574;28;20185;-48
2024/01/08 01:09:55;;;;;;;1.37;1.27;;;3.40;33.40;;;;;;5014625;28;20208;-44
2024/01/08 01:12:20;;;;;;;0.98;0.50;;;3.40;33.30;;;;;;5014920;28;20482;-46
2024/01/08 01:14:46;;;;;;;0.80;0.30;;;3.40;33.20;;;;;;5014830;28;20186;-46
2024/01/08 01:17:12;;;;;;;0.93;0.83;;;3.40;33.30;;;;;;5015063;28;20243;-49
2024/01/08 01:19:38;;;;;;;0.87;0.57;;;3.30;33.00;;;;;;5014578;28;20702;-46
2024/01/08 01:22:03;;;;;;;0.70;0.30;;;3.30;32.40;;;;;;5014547;28;20472;-47
2024/01/08 01:24:29;;;;;;;0.90;0.43;;;3.20;32.00;;;;;;5014705;28;20182;-45
2024/01/08 01:26:55;;;;;;;0.80;0.30;;;3.20;32.60;;;;;;5014711;28;20180;-44
2024/01/08 01:29:20;;;;;;;6.00;1.30;;;3.20;32.50;;;;;;5014417;28;20226;-49
2024/01/08 01:31:46;;;;;;;1.25;0.50;;;3.20;32.50;;;;;;5014577;28;20221;-51
2024/01/08 01:34:12;;;;;;;4.00;3.43;;;3.10;32.20;;;;;;5014573;28;20178;-47
2024/01/08 01:36:39;;;;;;;0.95;0.60;;;3.20;31.90;;;;;;5022758;28;20598;-47
2024/01/08 01:39:05;;;;;;;0.90;0.43;;;3.10;32.10;;;;;;5034066;28;20735;-44
2024/01/08 01:41:34;;;;;;;0.80;0.30;;;3.10;32.20;;;;;;5034298;28;20233;-45
2024/01/08 01:44:00;;;;;;;1.17;0.73;;;3.10;32.30;;;;;;5034204;28;20628;-49
2024/01/08 01:46:47;;;;;;;0.95;0.75;;;3.00;31.30;;;;;;5034038;28;20182;-46
2024/01/08 01:49:15;;;;;;;0.80;0.30;;;3.00;31.80;;;;;;5020521;28;20233;-49
2024/01/08 01:51:42;;;;;;;0.90;0.70;;;3.00;32.20;;;;;;5013486;28;20190;-45
2024/01/08 01:54:11;;;;;;;0.90;0.55;;;3.00;32.40;;;;;;5014272;28;20269;-44
2024/01/08 01:56:38;;;;;;;0.80;0.40;;;3.00;32.40;;;;;;5014195;28;20230;-49
2024/01/08 01:59:05;;;;;;;2.60;1.25;;;3.00;32.30;;;;;;5013812;28;20229;-44
2024/01/08 02:01:33;;;;;;;2.28;1.13;;;3.00;32.30;;;;;;5013894;28;20224;-42
2024/01/08 02:04:01;;;;;;;2.25;2.05;;;2.90;32.60;;;;;;5013794;28;20229;-49
2024/01/08 02:06:28;;;;;;;1.88;0.65;;;2.90;32.60;;;;;;5014087;28;20659;-51
2024/01/08 02:08:54;;;;;;;1.02;0.93;;;2.80;32.30;;;;;;5013720;28;20284;-45
2024/01/08 02:11:20;;;;;;;1.35;1.00;;;2.70;32.70;;;;;;5013967;28;20611;-48
2024/01/08 02:13:47;;;;;;;2.35;1.23;;;2.80;32.60;;;;;;5013593;28;20182;-46
2024/01/08 02:16:14;;;;;;;1.38;0.82;;;2.70;32.30;;;;;;5013694;28;20182;-43
2024/01/08 02:18:39;;;;;;;1.73;1.63;;;2.60;32.20;;;;;;5013807;28;20243;-48
2024/01/08 02:21:05;;;;;;;0.80;0.30;;;2.60;32.50;;;;;;5013556;28;20643;-44
2024/01/08 02:23:31;;;;;;;0.80;0.50;;;2.50;32.40;;;;;;5013656;28;20189;-46
2024/01/08 02:25:57;;;;;;;1.20;0.87;;;2.50;32.60;;;;;;5016334;28;20181;-47
2024/01/08 02:28:23;;;;;;;1.00;0.50;;;2.50;32.60;;;;;;5033202;28;20177;-47
2024/01/08 02:30:49;;;;;;;1.93;1.20;;;2.40;32.10;;;;;;5032763;28;20285;-45
2024/01/08 02:33:14;;;;;;;0.80;0.40;;;2.40;32.30;;;;;;5033475;28;20498;-44
2024/01/08 02:35:41;;;;;;;0.70;0.20;;;2.40;32.40;;;;;;5033328;28;20233;-48
2024/01/08 02:38:07;;;;;;;1.55;1.30;;;2.40;32.70;;;;;;5033122;28;20185;-47
2024/01/08 02:40:32;;;;;;;0.90;0.50;;;2.40;32.40;;;;;;5015125;28;20209;-44
2024/01/08 02:42:58;;;;;;;1.00;0.53;;;2.40;32.00;;;;;;5032849;28;20670;-49
2024/01/08 02:45:24;;;;;;;2.17;1.23;;;2.40;31.50;;;;;;5032843;28;20501;-44
2024/01/08 02:47:50;;;;;;;3.93;1.90;;;2.30;31.60;;;;;;5033014;28;20181;-50
2024/01/08 02:50:15;;;;;;;1.20;0.87;;;2.30;31.60;;;;;;5032742;28;20208;-49
2024/01/08 02:52:44;;;;;;;0.90;0.60;;;2.20;31.60;;;;;;5032845;28;20720;-44
2024/01/08 02:55:13;;;;;;;0.93;0.82;;;2.20;31.40;;;;;;5032648;28;20665;-49
2024/01/08 02:57:38;;;;;;;1.13;0.75;;;2.10;31.80;;;;;;5032667;28;20184;-49
2024/01/08 03:00:06;;;;;;;1.27;1.17;;;2.10;31.60;;;;;;5020469;28;20640;-44
2024/01/08 03:02:32;;;;;;;0.80;0.30;;;2.10;31.40;;;;;;5013057;28;20292;-48
2024/01/08 03:04:58;;;;;;;0.80;0.50;;;2.00;31.40;;;;;;5012977;28;20598;-46
2024/01/08 03:07:24;;;;;;;1.00;0.60;;;1.90;31.60;;;;;;5013029;28;20212;-47
2024/01/08 03:09:50;;;;;;;1.08;0.65;;;1.90;31.10;;;;;;5012561;28;20936;-49
2024/01/08 03:12:16;;;;;;;0.90;0.50;;;1.80;30.80;;;;;;5012811;28;20556;-45
2024/01/08 03:14:43;;;;;;;0.80;0.40;;;1.70;31.00;;;;;;4995004;28;20188;-47
2024/01/08 03:17:09;;;;;;;4.65;1.98;;;1.70;31.30;;;;;;5012683;28;20483;-49
2024/01/08 03:19:35;;;;;;;2.50;1.30;;;1.60;31.30;;;;;;5012262;28;20253;-48
2024/01/08 03:22:01;;;;;;;1.63;0.63;;;1.60;31.10;;;;;;5012511;28;20455;-46
2024/01/08 03:24:28;;;;;;;0.80;0.30;;;1.50;31.50;;;;;;5012636;28;20181;-46
2024/01/08 03:26:54;;;;;;;1.00;0.80;;;1.50;31.70;;;;;;5012403;28;20713;-47
2024/01/08 03:29:19;;;;;;;0.90;0.50;;;1.60;31.50;;;;;;5012170;28;20213;-48
2024/01/08 03:31:45;;;;;;;1.13;1.03;;;1.50;31.50;;;;;;5012337;28;20424;-43
2024/01/08 03:34:13;;;;;;;1.90;1.45;;;1.50;31.30;;;;;;5012360;28;20687;-44
2024/01/08 03:36:38;;;;;;;1.70;1.02;;;1.40;32.00;;;;;;5012305;28;20190;-47
2024/01/08 03:39:04;;;;;;;2.10;1.27;;;1.40;31.20;;;;;;5012093;28;20304;-44
2024/01/08 03:41:30;;;;;;;0.80;0.40;;;1.30;31.20;;;;;;5012776;28;20240;-47
2024/01/08 03:43:56;;;;;;;5.73;2.23;;;1.30;31.00;;;;;;5012992;28;20269;-48
2024/01/08 03:46:21;;;;;;;5.22;1.08;;;1.20;31.30;;;;;;5012655;28;20406;-44
2024/01/08 03:48:48;;;;;;;0.80;0.40;;;1.10;31.40;;;;;;5012376;28;20638;-48
2024/01/08 03:51:14;;;;;;;0.90;0.55;;;1.10;31.40;;;;;;5012806;28;20186;-44
2024/01/08 03:53:40;;;;;;;2.60;1.30;;;1.00;31.10;;;;;;5012633;28;20195;-45
2024/01/08 03:56:06;;;;;;;1.63;1.07;;;0.90;31.20;;;;;;5012297;28;20223;-50
2024/01/08 03:58:31;;;;;;;1.13;0.90;;;0.90;31.30;;;;;;5012588;28;20238;-49
2024/01/08 04:00:57;;;;;;;12.53;1.90;;;0.80;31.50;;;;;;5023365;28;20433;-45
2024/01/08 04:03:23;;;;;;;1.87;1.07;;;0.80;31.60;;;;;;5032046;28;20201;-51
2024/01/08 04:05:48;;;;;;;1.07;0.80;;;0.80;31.60;;;;;;5032170;28;20172;-45
2024/01/08 04:08:14;;;;;;;0.80;0.50;;;0.70;31.60;;;;;;5032797;28;20211;-44
2024/01/08 04:10:40;;;;;;;0.90;0.60;;;0.60;31.30;;;;;;5032902;28;20234;-47
2024/01/08 04:13:05;;;;;;;0.90;0.67;;;0.60;31.60;;;;;;5031794;28;20175;-49
2024/01/08 04:15:31;;;;;;;0.90;0.50;;;0.50;31.50;;;;;;5034966;28;20180;-50
2024/01/08 04:17:57;;;;;;;0.90;0.77;;;0.40;31.60;;;;;;5035649;28;20670;-43
2024/01/08 04:20:23;;;;;;;3.65;2.75;;;0.40;32.60;;;;;;5035452;28;20207;-45
2024/01/08 04:22:50;;;;;;;1.00;0.87;;;0.40;32.10;;;;;;5035411;28;20212;-49
2024/01/08 04:25:16;;;;;;;1.00;0.90;;;0.40;32.10;;;;;;5035673;28;20183;-48
2024/01/08 04:27:43;;;;;;;0.80;0.43;;;0.40;31.80;;;;;;5018770;28;20181;-44
2024/01/08 04:30:09;;;;;;;0.80;0.47;;;0.40;32.10;;;;;;5015716;28;20223;-46
2024/01/08 04:32:36;;;;;;;0.80;0.55;;;0.30;32.20;;;;;;5015732;28;20683;-49
2024/01/08 04:35:05;;;;;;;9.07;3.15;;;0.30;32.40;;;;;;5035023;28;20273;-45
2024/01/08 04:37:30;;;;;;;2.45;1.38;;;0.30;32.20;;;;;;5035294;28;20549;-44
2024/01/08 04:39:56;;;;;;;0.80;0.40;;;0.30;32.20;;;;;;5032406;28;20218;-49
2024/01/08 04:42:22;;;;;;;2.00;1.85;;;0.30;32.00;;;;;;5015485;28;20244;-45
2024/01/08 04:44:48;;;;;;;3.03;2.87;;;0.30;31.90;;;;;;5016794;28;20178;-47
2024/01/08 04:47:14;;;;;;;0.90;0.53;;;0.30;31.90;;;;;;5035010;28;20632;-48
2024/01/08 04:49:40;;;;;;;0.80;0.30;;;0.20;31.70;;;;;;5018615;28;20433;-48
2024/01/08 04:52:06;;;;;;;1.40;1.20;;;0.20;32.20;;;;;;5035156;28;20185;-44
2024/01/08 04:54:32;;;;;;;1.10;1.00;;;0.20;31.90;;;;;;5035048;28;20585;-46
2024/01/08 04:56:58;;;;;;;2.83;2.63;;;0.20;31.50;;;;;;5034805;28;20413;-50
2024/01/08 04:59:24;;;;;;;0.70;0.30;;;0.30;31.50;;;;;;5034640;28;20690;-45
2024/01/08 05:01:50;;;;;;;2.73;2.50;;;0.20;31.70;;;;;;5034611;28;20203;-46
2024/01/08 05:04:17;;;;;;;2.45;2.25;;;0.20;31.70;;;;;;5034993;28;20426;-48
2024/01/08 05:06:44;;;;;;;1.00;0.88;;;0.30;31.90;;;;;;5034770;28;20579;-44
2024/01/08 05:09:10;;;;;;;0.93;0.60;;;0.30;31.90;;;;;;5016654;28;20194;-45
2024/01/08 05:11:36;;;;;;;0.70;0.20;;;0.30;31.80;;;;;;5034751;28;20183;-50
2024/01/08 05:14:05;;;;;;;0.95;0.60;;;0.30;31.30;;;;;;5034540;28;20178;-50
2024/01/08 05:16:32;;;;;;;1.75;1.35;;;0.30;31.20;;;;;;5034511;28;20229;-44
2024/01/08 05:18:57;;;;;;;0.80;0.43;;;0.20;30.90;;;;;;5034299;28;20186;-48
2024/01/08 05:21:23;;;;;;;0.80;0.37;;;0.20;31.30;;;;;;5034455;28;20206;-48
2024/01/08 05:23:49;;;;;;;0.80;0.40;;;0.20;31.30;;;;;;5034241;28;20188;-43
2024/01/08 05:26:15;;;;;;;2.00;1.90;;;0.20;31.60;;;;;;5033557;28;20213;-48
2024/01/08 05:28:40;;;;;;;0.80;0.30;;;0.20;31.80;;;;;;5034256;28;21147;-46
2024/01/08 05:31:06;;;;;;;1.25;0.85;;;0.20;31.70;;;;;;5034325;28;20170;-45
2024/01/08 05:33:32;;;;;;;0.97;0.63;;;0.20;31.70;;;;;;5034369;28;20183;-49
2024/01/08 05:35:58;;;;;;;1.33;1.23;;;0.10;31.50;;;;;;5034225;28;20409;-45
2024/01/08 05:38:24;;;;;;;1.77;1.40;;;0.10;31.70;;;;;;5034034;28;20189;-44
2024/01/08 05:40:51;;;;;;;0.80;0.40;;;0.20;31.70;;;;;;5034183;28;20291;-46
2024/01/08 05:43:16;;;;;;;1.73;1.58;;;0.20;31.50;;;;;;5034164;28;20212;-45
2024/01/08 05:45:42;;;;;;;1.50;0.77;;;0.10;31.30;;;;;;5034095;28;20202;-45
2024/01/08 05:48:08;;;;;;;0.80;0.30;;;0.10;31.40;;;;;;5033993;28;20416;-48
2024/01/08 05:50:34;;;;;;;2.67;1.70;;;0.10;31.40;;;;;;5033817;28;20429;-43
2024/01/08 05:53:00;;;;;;;1.00;0.60;;;0.10;31.70;;;;;;5033807;28;20228;-50
2024/01/08 05:55:26;;;;;;;0.80;0.40;;;0.10;31.90;;;;;;5034037;28;20186;-50
2024/01/08 05:57:52;;;;;;;1.23;0.68;;;0.10;32.00;;;;;;5033920;28;20194;-43
2024/01/08 06:00:18;;;;;;;1.25;1.15;;;0.20;32.00;;;;;;5033575;28;20205;-45
2024/01/08 06:02:44;;;;;;;0.88;0.65;;;0.20;31.80;;;;;;5033607;28;20675;-48
2024/01/08 06:05:11;;;;;;;1.80;1.27;;;0.20;31.50;;;;;;5033703;28;20261;-44
2024/01/08 06:07:38;;;;;;;1.60;1.35;;;0.10;31.80;;;;;;5033731;28;20182;-44
2024/01/08 06:10:04;;;;;;;2.03;1.60;;;0.10;31.70;;;;;;5033462;28;20202;-48
2024/01/08 06:12:30;;;;;;;1.40;1.30;;;0.10;31.70;;;;;;5033767;28;20201;-44
2024/01/08 06:14:56;;;;;;;2.75;1.15;;;0.10;32.10;;;;;;5033380;28;20190;-45
2024/01/08 06:17:22;;;;;;;1.00;0.80;;;0.20;32.00;;;;;;5033552;28;20182;-50
2024/01/08 06:19:48;;;;;;;0.70;0.30;;;0.20;31.40;;;;;;5033226;28;20720;-44
2024/01/08 06:22:15;;;;;;;0.70;0.30;;;0.20;31.20;;;;;;5033210;28;20512;-49
2024/01/08 06:24:40;;;;;;;6.80;2.17;;;0.10;31.60;;;;;;5033589;28;20180;-49
2024/01/08 06:27:06;;;;;;;1.40;1.30;;;0.10;31.60;;;;;;5033581;28;20638;-44
2024/01/08 06:29:32;;;;;;;4.80;0.60;;;0.10;31.70;;;;;;5033025;28;20799;-46
2024/01/08 06:31:59;;;;;;;1.88;1.52;;;0.10;31.40;;;;;;5033119;28;20494;-49
2024/01/08 06:34:25;;;;;;;1.77;0.80;;;0.00;30.40;;;;;;5033079;28;20186;-49
2024/01/08 06:36:51;;;;;;;1.30;0.88;;;-0.10;31.20;;;;;;5032715;28;20182;-44
2024/01/08 06:39:17;;;;;;;1.67;1.50;;;-0.20;30.80;;;;;;5032947;28;20213;-45
2024/01/08 06:41:42;;;;;;;1.17;0.70;;;-0.20;31.40;;;;;;5032934;28;20460;-50
2024/01/08 06:44:08;;;;;;;0.90;0.67;;;-0.30;31.40;;;;;;5033008;28;20174;-45
2024/01/08 06:46:34;;;;;;;0.70;0.20;;;-0.30;31.20;;;;;;5032949;28;20410;-46
2024/01/08 06:49:00;;;;;;;1.60;0.93;;;-0.30;31.80;;;;;;5032412;28;20445;-47
2024/01/08 06:51:26;;;;;;;1.10;0.40;;;-0.20;32.00;;;;;;5032930;28;20558;-44
2024/01/08 06:53:52;;;;;;;0.90;0.63;;;-0.20;31.50;;;;;;5033150;28;20179;-45
2024/01/08 06:56:18;;;;;;;0.80;0.40;;;-0.20;31.20;;;;;;5032813;28;20413;-49
2024/01/08 06:58:43;;;;;;;1.13;1.03;;;-0.20;31.50;;;;;;5032536;28;20176;-50
2024/01/08 07:01:09;;;;;;;4.97;1.43;;;-0.30;30.10;;;;;;5032405;28;20500;-45
2024/01/08 07:03:35;;;;;;;2.10;0.97;;;-0.40;30.40;;;;;;5032732;28;20172;-45
2024/01/08 07:06:04;;;;;;;0.90;0.60;;;-0.60;30.10;;;;;;5032420;28;20345;-47
2024/01/08 07:08:30;;;;;;;1.00;0.90;;;-0.60;31.10;;;;;;5032634;28;20184;-44
2024/01/08 07:10:56;;;;;;;0.80;0.47;;;-0.50;31.70;;;;;;5032071;28;20202;-44
2024/01/08 07:13:21;;;;;;;0.70;0.20;;;-0.50;31.80;;;;;;5032399;28;20187;-47
2024/01/08 07:15:48;;;;;;;0.83;0.60;;;-0.50;31.90;;;;;;5032365;28;20186;-46
2024/01/08 07:18:18;;;;;;;4.00;1.90;;;-0.40;31.80;;;;;;5032459;28;20190;-44
2024/01/08 07:20:44;;;;;;;2.22;2.03;;;-0.40;31.80;;;;;;5031978;28;20205;-47
2024/01/08 07:23:11;;;;;;;1.00;0.88;;;-0.40;31.90;;;;;;5032425;28;20259;-51
2024/01/08 07:25:37;;;;;;;0.80;0.65;;;-0.40;31.80;;;;;;5032574;28;20205;-45
2024/01/08 07:28:08;;;;;;;0.70;0.30;;;-0.30;31.80;;;;;;5032152;28;20643;-48
2024/01/08 07:30:35;;;;;;;0.90;0.70;;;-0.40;31.90;;;;;;5016769;28;20199;-44
2024/01/08 07:33:01;;;;;;;3.20;1.27;;;-0.30;31.90;;;;;;5012446;28;20178;-44
2024/01/08 07:35:27;;;;;;;0.80;0.50;;;-0.30;31.50;;;;;;5012603;28;20193;-47
2024/01/08 07:37:55;;;;;;;0.90;0.50;;;-0.30;31.50;;;;;;5012429;28;20253;-50
2024/01/08 07:40:23;;;;;;;3.08;2.45;;;-0.30;31.20;;;;;;4994418;28;20469;-43
2024/01/08 07:42:49;;;;;;;0.70;0.30;;;-0.40;31.00;;;;;;5013205;28;20210;-46
2024/01/08 07:45:15;;;;;;;0.80;0.40;;;-0.40;31.50;;;;;;5013366;28;20171;-49
2024/01/08 07:47:41;;;;;;;0.80;0.50;;;-0.40;31.40;;;;;;5013202;28;20183;-52
2024/01/08 07:50:08;;;;;;;0.70;0.20;;;-0.40;31.70;;;;;;5011448;28;20692;-42
2024/01/08 07:52:34;;;;;;;1.63;1.53;;;-0.30;31.80;;;;;;5012115;28;20182;-43
2024/01/08 07:54:59;;;;;;;1.43;0.60;;;-0.30;31.70;;;;;;5012045;28;20436;-51
2024/01/08 07:57:25;;;;;;;0.70;0.30;;;-0.30;31.70;;;;;;5012111;28;20179;-45
2024/01/08 07:59:51;;;;;;;0.80;0.50;;;-0.30;31.50;;;;;;5011806;28;20198;-46
2024/01/08 08:02:16;;;;;;;2.77;2.63;;;-0.30;31.80;;;;;;5012129;28;20198;-47
2024/01/08 08:04:42;;;;;;;4.83;1.27;;;-0.20;31.70;;;;;;5012065;28;20203;-44
2024/01/08 08:07:08;;;;;;;0.80;0.40;;;-0.20;31.60;;;;;;5004169;28;20192;-44
2024/01/08 08:09:34;;;;;;;3.23;2.00;;;-0.20;31.50;;;;;;5011842;28;20356;-49
2024/01/08 08:11:59;;;;;;;0.80;0.50;;;-0.20;31.50;;;;;;5011883;28;20210;-44
2024/01/08 08:14:26;;;;;;;2.80;1.80;;;-0.10;31.50;;;;;;5011962;28;20823;-44
2024/01/08 08:16:53;;;;;;;0.80;0.50;;;-0.20;31.90;;;;;;5011737;28;20186;-51
2024/01/08 08:19:18;;;;;;;3.05;1.67;;;-0.20;31.20;;;;;;5011565;28;20205;-50
2024/01/08 08:21:44;;;;;;;0.80;0.30;;;-0.20;31.20;;;;;;5011700;28;20198;-46
2024/01/08 08:24:10;;;;;;;0.93;0.83;;;-0.20;31.10;;;;;;5011822;28;20187;-51
2024/01/08 08:26:36;;;;;;;0.80;0.47;;;-0.20;31.10;;;;;;5011818;28;20170;-52
2024/01/08 08:29:02;;;;;;;0.70;0.30;;;-0.20;30.80;;;;;;5011415;28;20248;-45
2024/01/08 08:31:27;;;;;;;1.70;1.52;;;-0.20;30.60;;;;;;5011784;28;20238;-46
2024/01/08 08:33:54;;;;;;;1.03;0.93;;;-0.30;30.20;;;;;;5011865;28;20417;-49
2024/01/08 08:36:20;;;;;;;2.10;1.67;;;-0.30;31.00;;;;;;5011747;28;20186;-44
2024/01/08 08:38:45;;;;;;;0.95;0.75;;;-0.30;31.20;;;;;;5011412;28;20693;-47
2024/01/08 08:41:11;;;;;;;0.80;0.40;;;-0.30;30.80;;;;;;5011456;28;20183;-49
2024/01/08 08:43:37;;;;;;;0.75;0.30;;;-0.30;30.70;;;;;;5011636;28;20265;-44
2024/01/08 08:46:03;;;;;;;0.80;0.43;;;-0.30;31.10;;;;;;5011535;28;20272;-51
2024/01/08 08:48:29;;;;;;;0.80;0.30;;;-0.20;31.00;;;;;;5011918;28;20641;-47
2024/01/08 08:50:54;;;;;;;2.93;1.13;;;-0.20;31.10;;;;;;5011540;28;20802;-44
2024/01/08 08:53:20;;;;;;;1.83;1.70;;;-0.20;30.50;;;;;;5011687;28;20714;-47
2024/01/08 08:55:46;;;;;;;3.07;1.27;;;-0.20;30.80;;;;;;5011495;28;20501;-51
2024/01/08 08:58:12;;;;;;;0.80;0.40;;;-0.20;31.10;;;;;;5011554;28;20184;-44
2024/01/08 09:00:37;;;;;;;1.13;1.00;;;-0.20;31.10;;;;;;5012643;28;20572;-50
2024/01/08 09:03:03;;;;;;;0.90;0.77;;;-0.10;30.10;;;;;;5014925;28;20223;-48
2024/01/08 09:05:30;;;;;;;4.53;2.63;;;-0.10;30.90;;;;;;5015386;28;20206;-43
2024/01/08 09:07:56;;;;;;;1.63;1.25;;;-0.10;30.70;;;;;;5014989;28;20409;-49
2024/01/08 09:10:22;;;;;;;1.67;1.57;;;-0.10;31.00;;;;;;5014805;28;20207;-49
2024/01/08 09:12:47;;;;;;;1.07;0.97;;;-0.10;31.00;;;;;;5015499;28;20515;-42
2024/01/08 09:15:13;;;;;;;6.77;3.47;;;-0.10;30.70;;;;;;5034698;28;20408;-49
2024/01/08 09:17:40;;;;;;;2.90;2.73;;;-0.10;30.50;;;;;;5034843;28;20175;-49
2024/01/08 09:20:09;;;;;;;6.18;2.08;;;-0.10;31.30;;;;;;5034571;28;20425;-43
2024/01/08 09:22:35;;;;;;;1.67;1.58;;;-0.10;30.70;;;;;;5034548;28;20209;-45
2024/01/08 09:25:01;;;;;;;1.00;0.90;;;-0.10;30.50;;;;;;5034390;28;20178;-50
2024/01/08 09:27:28;;;;;;;0.75;0.38;;;-0.10;30.70;;;;;;5034371;28;20174;-45
2024/01/08 09:29:53;;;;;;;1.27;1.17;;;-0.10;30.70;;;;;;5034056;28;20201;-44
2024/01/08 09:32:19;;;;;;;1.03;0.83;;;-0.10;30.60;;;;;;5034627;28;20182;-48
2024/01/08 09:34:45;;;;;;;1.90;1.30;;;-0.10;30.50;;;;;;5034192;28;20447;-50
2024/01/08 09:37:11;;;;;;;0.70;0.30;;;-0.10;30.70;;;;;;5034171;28;20183;-45
2024/01/08 09:39:36;;;;;;;0.70;0.20;;;-0.20;30.40;;;;;;5033911;28;20217;-46
2024/01/08 09:42:03;;;;;;;0.80;0.50;;;-0.20;30.30;;;;;;5033941;28;20202;-49
2024/01/08 09:44:31;;;;;;;0.80;0.63;;;-0.20;29.90;;;;;;5034155;28;20671;-48
2024/01/08 09:46:57;;;;;;;1.90;1.80;;;-0.30;30.80;;;;;;5016335;28;20180;-43
2024/01/08 09:49:24;;;;;;;1.15;0.70;;;-0.20;31.10;;;;;;5033956;28;20200;-46
2024/01/08 09:51:50;;;;;;;0.88;0.60;;;-0.10;30.50;;;;;;5034010;28;20271;-49
2024/01/08 09:54:20;;;;;;;0.90;0.77;;;-0.10;30.60;;;;;;5033975;28;20613;-43
2024/01/08 09:56:53;;;;;;;3.28;2.97;;;-0.10;30.40;;;;;;5033844;28;20182;-49
2024/01/08 09:59:19;;;;;;;0.70;0.20;;;0.00;30.80;;;;;;5033873;28;20259;-45
2024/01/08 10:01:45;;;;;;;1.20;0.95;;;0.00;30.70;;;;;;5033694;28;20227;-44
2024/01/08 10:04:10;;;;;;;1.15;1.05;;;0.10;30.70;;;;;;4996498;28;20174;-46
2024/01/08 10:06:39;;;;;;;0.80;0.50;;;0.10;30.50;;;;;;5014081;28;20207;-49
2024/01/08 10:09:04;;;;;;;0.82;0.63;;;0.10;30.40;;;;;;5013573;28;20211;-46
2024/01/08 10:11:31;;;;;;;0.82;0.47;;;0.10;30.00;;;;;;5013484;28;20179;-44
2024/01/08 10:13:56;;;;;;;0.70;0.20;;;0.20;30.50;;;;;;5013582;28;20177;-50
2024/01/08 10:16:25;;;;;;;3.17;2.97;;;0.20;30.10;;;;;;5013886;28;20186;-48
2024/01/08 10:18:51;;;;;;;1.05;0.60;;;0.30;30.30;;;;;;5013470;28;20505;-45
2024/01/08 10:21:17;;;;;;;2.50;1.23;;;0.30;30.00;;;;;;5013754;28;20276;-48
2024/01/08 10:23:43;;;;;;;1.77;1.67;;;0.40;30.10;;;;;;5013590;28;20451;-43
2024/01/08 10:26:14;;;;;;;0.70;0.20;;;1.20;30.30;;;;;;5033485;28;20201;-48
2024/01/08 10:28:40;;;;;;;1.65;0.90;;;0.80;30.00;;;;;;5033419;28;20173;-45
2024/01/08 10:31:09;;;;;;;0.80;0.45;;;1.50;29.90;;;;;;5033197;28;20227;-48
2024/01/08 10:33:35;;;;;;;2.20;1.58;;;2.40;29.30;;;;;;5033219;28;20174;-50
2024/01/08 10:36:04;;;;;;;1.70;1.57;;;2.90;28.60;;;;;;5033074;28;20173;-44
2024/01/08 10:38:34;;;;;;;1.63;1.53;;;2.90;27.00;;;;;;5032920;28;20457;-47
2024/01/08 10:41:01;;;;;;;1.35;0.82;;;2.70;26.70;;;;;;5032692;28;20433;-48
2024/01/08 10:43:30;;;;;;;0.90;0.77;;;2.40;26.70;;;;;;5032983;28;20745;-44
2024/01/08 10:46:00;;;;;;;0.90;0.50;;;2.20;27.30;;;;;;5033073;28;20888;-50
2024/01/08 10:48:40;;;;;;;0.95;0.85;;;2.00;27.80;;;;;;5033061;28;20182;-51
2024/01/08 10:51:11;;;;;;;4.60;2.20;;;2.10;28.10;;;;;;5032942;28;20170;-44
2024/01/08 10:53:49;;;;;;;1.02;0.90;;;2.50;28.10;;;;;;5017818;28;20412;-44
2024/01/08 10:56:18;;;;;;;1.20;0.77;;;2.80;27.90;;;;;;5032875;28;20178;-48
2024/01/08 10:59:18;;;;;;;1.48;1.25;;;2.90;27.30;;;;;;5032696;28;20178;-46
2024/01/08 11:01:45;;;;;;;1.10;0.70;;;3.20;27.20;;;;;;5015043;28;20212;-50
2024/01/08 11:04:12;;;;;;;1.10;0.77;;;3.10;26.60;;;;;;5032811;28;20205;-44
2024/01/08 11:06:45;;;;;;;2.35;1.38;;;3.10;26.30;;;;;;5032887;28;20182;-45
2024/01/08 11:09:31;;;;;;;0.80;0.40;;;3.20;26.30;;;;;;5029031;28;20201;-46
2024/01/08 11:11:57;;;;;;;5.45;1.52;;;3.20;25.90;;;;;;5014612;28;20240;-46
2024/01/08 11:14:24;;;;;;;1.00;0.85;;;3.30;25.70;;;;;;5032679;28;20174;-51
2024/01/08 11:16:51;;;;;;;5.93;2.13;;;3.30;25.90;;;;;;5032580;28;20313;-45
2024/01/08 11:19:19;;;;;;;4.03;1.48;;;3.20;25.80;;;;;;5032408;28;20200;-45
2024/01/08 11:21:48;;;;;;;1.85;1.70;;;3.20;25.70;;;;;;5032397;28;20220;-48
2024/01/08 11:24:14;;;;;;;1.17;0.80;;;3.20;25.90;;;;;;5031434;28;20170;-44
2024/01/08 11:26:44;;;;;;;1.10;0.77;;;3.20;26.80;;;;;;5032519;28;20185;-45
2024/01/08 11:29:11;;;;;;;4.40;1.73;;;3.30;27.10;;;;;;5032697;28;20257;-50
2024/01/08 11:32:08;;;;;;;1.85;1.58;;;3.40;26.50;;;;;;5033013;28;20248;-46
2024/01/08 11:34:51;;;;;;;1.73;1.63;;;3.50;25.80;;;;;;5032773;28;20190;-45
2024/01/08 11:37:34;;;;;;;2.60;2.10;;;3.50;25.50;;;;;;5032434;28;20790;-47
2024/01/08 11:40:05;;;;;;;1.00;0.63;;;3.40;25.20;;;;;;5031743;28;20586;-45
2024/01/08 11:42:33;;;;;;;3.55;2.30;;;3.50;25.20;;;;;;5032037;28;20532;-49
2024/01/08 11:45:03;;;;;;;1.00;0.75;;;4.00;25.70;;;;;;5031779;28;20180;-48
2024/01/08 11:47:32;;;;;;;4.35;1.58;;;4.30;25.30;;;;;;5031987;28;20209;-45
2024/01/08 11:49:58;;;;;;;3.88;0.85;;;4.50;24.10;;;;;;5031597;28;20424;-50
2024/01/08 11:52:26;;;;;;;1.75;1.33;;;4.50;23.90;;;;;;5031783;28;20671;-51
2024/01/08 11:54:54;;;;;;;2.47;2.33;;;4.60;24.80;;;;;;5031720;28;20543;-45
2024/01/08 11:57:20;;;;;;;5.25;2.63;;;4.70;23.50;;;;;;5014253;28;20185;-46
2024/01/08 11:59:46;;;;;;;1.90;1.38;;;5.00;23.50;;;;;;5031576;28;20197;-45
2024/01/08 12:02:19;;;;;;;1.38;1.27;;;5.40;23.40;;;;;;5031574;28;20295;-47
2024/01/08 12:04:58;;;;;;;1.80;1.23;;;5.90;23.40;;;;;;5023799;28;20179;-51
2024/01/08 12:07:26;;;;;;;1.50;1.40;;;6.20;22.90;;;;;;5010883;28;20178;-45
2024/01/08 12:09:53;;;;;;;7.13;3.50;;;6.30;21.70;;;;;;5022538;28;20194;-51
2024/01/08 12:12:20;;;;;;;4.15;3.15;;;6.40;22.80;;;;;;5011905;28;20214;-47
2024/01/08 12:14:47;;;;;;;5.75;4.97;;;6.30;21.90;;;;;;5012281;28;20171;-45
2024/01/08 12:17:16;;;;;;;4.28;2.38;;;6.20;21.50;;;;;;5012077;28;20217;-52
2024/01/08 12:19:45;;;;;;;13.70;1.88;;;6.00;21.30;;;;;;5011623;28;20222;-51
2024/01/08 12:22:12;;;;;;;5.55;1.75;;;5.90;21.00;;;;;;5011682;28;20286;-45
2024/01/08 12:24:42;;;;;;;3.35;1.40;;;5.80;23.30;;;;;;5011804;28;20255;-48
2024/01/08 12:27:08;;;;;;;2.58;1.50;;;6.00;24.00;;;;;;5011802;28;20178;-44
2024/01/08 12:29:38;;;;;;;10.02;3.20;;;6.30;21.10;;;;;;5011687;28;20600;-45
2024/01/08 12:32:05;;;;;;;3.30;2.75;;;7.00;21.00;;;;;;5011745;28;20180;-51
2024/01/08 12:34:31;;;;;;;9.13;3.90;;;7.70;20.40;;;;;;5011709;28;20179;-46
2024/01/08 12:37:01;;;;;;;3.10;2.33;;;8.20;18.70;;;;;;5015253;28;20183;-45
2024/01/08 12:39:30;;;;;;;1.52;1.23;;;8.50;18.20;;;;;;5015301;28;20280;-48
2024/01/08 12:42:00;;;;;;;5.80;3.03;;;9.10;17.60;;;;;;5015451;28;20289;-47
2024/01/08 12:44:29;;;;;;;3.95;3.58;;;9.70;18.20;;;;;;5015493;28;20185;-46
2024/01/08 12:46:55;;;;;;;9.15;2.65;;;10.50;17.60;;;;;;5015528;28;20257;-51
2024/01/08 12:49:23;;;;;;;7.40;3.38;;;11.00;16.80;;;;;;5015165;28;20205;-50
2024/01/08 12:51:50;;;;;;;3.38;3.08;;;11.60;17.20;;;;;;5015172;28;20178;-46
2024/01/08 12:54:16;;;;;;;7.45;4.15;;;12.10;16.50;;;;;;5015274;28;20186;-45